Virner, California
Current Conditions -  °F | °C
As of 3:15 AM on Sunday 21 Dec 2014 (Local Time) from KPVF Reporting Station
Overcast Overcast  
Wind Chill: 45°   Ceiling: 500
Heat Index: 48°   Visibility: 0.5mi
Dew Point: 48°   Wind: 7mph
Humidity: 100%   Direction: 140°SE
Pressure: 30.28"   Gusts: NA
Location:  38.9159°N, 120.725°W
Report Text: KPVF 211115Z AUTO 14006KT 1/2SM OVC005 09/09 A3028 RMK AO1
Loading
Personal Weather Stations






























Interactive Weather Map New forecast layout! Learn more

10-Day Weather Forecast

Advertisements
Track Severe Weather on mobile